Weather History for KDYT - October, 2012

Change the Weather History Date:

Monday, October 15, 2012

  Actual Average Record
Temperature  
Mean Temperature 42 °F -  
Max Temperature 48 °F 54 °F 82 °F (1962)
Min Temperature 35 °F 37 °F 3 °F (1997)
Degree Days  
Heating Degree Days 24    
Moisture  
Dew Point 37 °F    
Average Humidity 83    
Maximum Humidity 93    
Minimum Humidity 66    
Precipitation  
Precipitation 0.00 in - - ()
Sea Level Pressure  
Sea Level Pressure 29.88 in    
Wind  
Wind Speed 4 mph (NE)    
Max Wind Speed 15 mph    
Max Gust Speed -    
Visibility 10 miles    
Events Rain    
Averages and records for this station are not official NWS values.
T = Trace of Precipitation, MM = Missing Value Source: NWS Daily Summary

Daily Weather History Graph

Daily Weather History Graph

Search for Another Location

Airport or City:

Trip Planner

Search our weather history database for the weather conditions in past years. The results will help you decide how hot, cold, wet, or windy it might be!

Date:

Astronomy

Oct. 15, 2012 Rise Set
Actual Time 7:26 AM CDT 6:20 PM CDT
Civil Twilight 6:56 AM CDT 6:50 PM CDT
Nautical Twilight 6:20 AM CDT 7:25 PM CDT
Astronomical Twilight 5:45 AM CDT 8:00 PM CDT
Moon 7:41 AM CDT (10/15) 6:14 PM CDT (10/15)
Length of Visible Light 11h 54m
Length of Day
10h 53m
New Moon, 0% of the Moon is Illuminated
Oct 15
New Moon
Oct 21
First Quarter
Oct 29
Full
Nov 6
Last Quarter
Nov 13
New

Hourly Weather History & Observations

Time (CDT) Temp. Windchill Dew Point Humidity Pressure Visibility Wind Dir Wind Speed Gust Speed Precip Events Conditions
12:14 AM 42.8 °F 40.1 °F 37.4 °F 81% 29.86 in 10.0 mi South 4.6 mph - N/A   Overcast
12:34 AM 42.8 °F - 37.4 °F 81% 29.86 in 10.0 mi Calm Calm - N/A   Overcast
12:53 AM 42.8 °F - 37.4 °F 81% 29.86 in 10.0 mi Calm Calm - N/A   Overcast
1:14 AM 42.8 °F - 37.4 °F 81% 29.86 in 10.0 mi Calm Calm - N/A   Scattered Clouds
1:34 AM 42.8 °F - 37.4 °F 81% 29.87 in 10.0 mi Calm Calm - N/A   Clear
1:53 AM 42.8 °F - 37.4 °F 81% 29.87 in 10.0 mi Calm Calm - N/A   Clear
2:14 AM 41.0 °F - 37.4 °F 87% 29.87 in 10.0 mi Calm Calm - N/A   Clear
2:34 AM 41.0 °F - 37.4 °F 87% 29.88 in 10.0 mi Calm Calm - N/A   Clear
2:53 AM 41.0 °F - 37.4 °F 87% 29.87 in 10.0 mi Calm Calm - N/A   Clear
3:14 AM 41.0 °F - 37.4 °F 87% 29.87 in 10.0 mi Calm Calm - N/A   Clear
3:34 AM 41.0 °F - 37.4 °F 87% 29.87 in 10.0 mi Calm Calm - N/A   Clear
3:53 AM 39.2 °F - 37.4 °F 93% 29.87 in 10.0 mi Calm Calm - N/A   Clear
4:14 AM 39.2 °F - 35.6 °F 87% 29.87 in 10.0 mi Calm Calm - N/A   Clear
4:34 AM 37.4 °F 33.8 °F 35.6 °F 93% 29.88 in 10.0 mi SSE 4.6 mph - N/A   Clear
4:53 AM 37.4 °F - 33.8 °F 87% 29.88 in 10.0 mi Calm Calm - N/A   Clear
5:14 AM 37.4 °F - 35.6 °F 93% 29.88 in 10.0 mi Calm Calm - N/A   Clear
5:34 AM 37.4 °F - 33.8 °F 87% 29.89 in 10.0 mi Calm Calm - N/A   Clear
5:53 AM 35.6 °F 29.9 °F 33.8 °F 93% 29.90 in 10.0 mi SW 6.9 mph - N/A   Clear
6:14 AM 37.4 °F 33.8 °F 33.8 °F 87% 29.90 in 10.0 mi WSW 4.6 mph - N/A   Clear
6:34 AM 37.4 °F 33.8 °F 33.8 °F 87% 29.90 in 10.0 mi WSW 4.6 mph - N/A   Clear
6:53 AM 37.4 °F - 33.8 °F 87% 29.90 in 10.0 mi Calm Calm - N/A   Clear
7:14 AM 35.6 °F - 33.8 °F 93% 29.91 in 10.0 mi Calm Calm - N/A   Clear
7:33 AM 35.6 °F 32.8 °F 32.0 °F 87% 29.91 in 10.0 mi South 3.5 mph - N/A   Clear
7:53 AM 35.6 °F 31.7 °F 32.0 °F 87% 29.91 in 10.0 mi South 4.6 mph - N/A   Clear
8:14 AM 35.6 °F - 33.8 °F 93% 29.92 in 10.0 mi Calm Calm - N/A   Clear
8:33 AM 37.4 °F - 33.8 °F 87% 29.92 in 10.0 mi Calm Calm - N/A   Clear
8:54 AM 37.4 °F - 33.8 °F 87% 29.93 in 10.0 mi Calm Calm - N/A   Clear
9:13 AM 39.2 °F - 35.6 °F 87% 29.92 in 10.0 mi Calm Calm - N/A   Clear
9:33 AM 39.2 °F 37.0 °F 35.6 °F 87% 29.92 in 10.0 mi SSW 3.5 mph - N/A   Clear
9:54 AM 42.8 °F 41.1 °F 35.6 °F 76% 29.94 in 10.0 mi SW 3.5 mph - N/A   Clear
10:13 AM 42.8 °F 41.1 °F 35.6 °F 76% 29.94 in 10.0 mi SW 3.5 mph - N/A   Clear
10:34 AM 44.6 °F - 35.6 °F 71% 29.93 in 10.0 mi Calm Calm - N/A   Clear
10:54 AM 46.4 °F - 35.6 °F 66% 29.93 in 10.0 mi Calm Calm - N/A   Clear
11:13 AM 48.2 °F - 37.4 °F 66% 29.92 in 10.0 mi Calm Calm - N/A   Clear
11:34 AM 46.4 °F - 37.4 °F 71% 29.93 in 10.0 mi Calm Calm - N/A   Clear
11:54 AM 46.4 °F 45.2 °F 37.4 °F 71% 29.93 in 10.0 mi NE 3.5 mph - N/A   Clear
12:13 PM 46.4 °F 42.9 °F 39.2 °F 76% 29.92 in 10.0 mi NNE 6.9 mph - N/A   Clear
12:34 PM 46.4 °F 44.3 °F 39.2 °F 76% 29.92 in 10.0 mi NNE 4.6 mph - N/A   Clear
12:54 PM 46.4 °F 44.3 °F 39.2 °F 76% 29.92 in 10.0 mi NE 4.6 mph - N/A   Clear
1:13 PM 46.4 °F 42.9 °F 41.0 °F 81% 29.91 in 10.0 mi ENE 6.9 mph - N/A   Clear
1:34 PM 46.4 °F 42.4 °F 39.2 °F 76% 29.91 in 10.0 mi ENE 8.1 mph - N/A   Clear
1:54 PM 46.4 °F 42.4 °F 39.2 °F 76% 29.90 in 10.0 mi East 8.1 mph - N/A   Clear
2:13 PM 48.2 °F - 37.4 °F 66% 29.89 in 10.0 mi East 8.1 mph - N/A   Clear
2:34 PM 46.4 °F 42.9 °F 39.2 °F 76% 29.88 in 10.0 mi ENE 6.9 mph - N/A   Clear
2:53 PM 46.4 °F 42.9 °F 39.2 °F 76% 29.88 in 10.0 mi NE 6.9 mph - N/A   Clear
3:14 PM 46.4 °F 42.9 °F 39.2 °F 76% 29.88 in 10.0 mi NE 6.9 mph - N/A   Clear
3:34 PM 46.4 °F 42.4 °F 39.2 °F 76% 29.88 in 10.0 mi NE 8.1 mph - N/A   Clear
3:53 PM 44.6 °F 39.2 °F 41.0 °F 87% 29.87 in 10.0 mi NE 10.4 mph - N/A   Clear
4:14 PM 46.4 °F 41.5 °F 41.0 °F 81% 29.87 in 10.0 mi NNE 10.4 mph - N/A   Clear
4:33 PM 44.6 °F 38.1 °F 39.2 °F 81% 29.88 in 10.0 mi NNE 13.8 mph - N/A   Clear
4:53 PM 42.8 °F 35.8 °F 39.2 °F 87% 29.87 in 10.0 mi NE 13.8 mph - N/A   Clear
5:14 PM 42.8 °F 36.2 °F 39.2 °F 87% 29.86 in 10.0 mi NE 12.7 mph - N/A   Clear
5:33 PM 42.8 °F 37.0 °F 39.2 °F 87% 29.87 in 10.0 mi NE 10.4 mph - N/A   Clear
5:53 PM 42.8 °F 37.0 °F 37.4 °F 81% 29.87 in 10.0 mi NE 10.4 mph - N/A   Clear
6:14 PM 42.8 °F 36.2 °F 37.4 °F 81% 29.85 in 10.0 mi ENE 12.7 mph - N/A   Scattered Clouds
6:34 PM 42.8 °F 35.8 °F 35.6 °F 76% 29.85 in 10.0 mi ENE 13.8 mph - N/A   Mostly Cloudy
6:53 PM 42.8 °F 36.2 °F 37.4 °F 81% 29.85 in 10.0 mi ENE 12.7 mph - N/A   Mostly Cloudy
7:14 PM 42.8 °F 37.0 °F 37.4 °F 81% 29.85 in 10.0 mi NE 10.4 mph - N/A   Scattered Clouds
7:33 PM 42.8 °F 35.8 °F 39.2 °F 87% 29.84 in 10.0 mi ENE 13.8 mph - N/A   Mostly Cloudy
7:54 PM 44.6 °F 38.8 °F 39.2 °F 81% 29.85 in 10.0 mi NE 11.5 mph - N/A   Overcast
8:13 PM 44.6 °F 39.2 °F 39.2 °F 81% 29.84 in 10.0 mi NE 10.4 mph - N/A   Overcast
8:33 PM 42.8 °F 36.6 °F 39.2 °F 87% 29.83 in 10.0 mi NE 11.5 mph - N/A   Overcast
8:54 PM 42.8 °F 36.6 °F 39.2 °F 87% 29.82 in 10.0 mi NE 11.5 mph - N/A   Overcast
9:13 PM 42.8 °F 37.0 °F 39.2 °F 87% 29.82 in 10.0 mi NE 10.4 mph - N/A   Overcast
9:34 PM 42.8 °F 35.4 °F 39.2 °F 87% 29.82 in 10.0 mi NE 15.0 mph - N/A   Light Drizzle
9:53 PM 42.8 °F 36.6 °F 39.2 °F 87% 29.82 in 10.0 mi NE 11.5 mph - N/A Rain Light Rain
10:13 PM 44.6 °F 38.4 °F 39.2 °F 81% 29.81 in 10.0 mi NE 12.7 mph - N/A   Overcast
10:34 PM 42.8 °F 36.2 °F 39.2 °F 87% 29.80 in 10.0 mi NE 12.7 mph - N/A   Overcast
10:53 PM 44.6 °F 38.8 °F 41.0 °F 87% 29.79 in 10.0 mi NE 11.5 mph - N/A   Overcast
11:14 PM 44.6 °F 37.8 °F 41.0 °F 87% 29.79 in 10.0 mi NE 15.0 mph - N/A   Overcast
11:34 PM 42.8 °F 35.4 °F 39.2 °F 87% 29.78 in 10.0 mi NE 15.0 mph - N/A   Overcast
11:53 PM 42.8 °F 36.6 °F 39.2 °F 87% 29.77 in 10.0 mi NE 11.5 mph - N/A   Overcast